Archival Weather

Chicago O'Hare International

Chicago, Illinois (KORD)

Report from: Friday, December 23, 2022 10:48 PM CST
Current time: Monday, June 17, 2024 2:55 AM CDT

Current weather – Weather history – Daily summaries
Weather forecast

Present weatherLight snow, blowing snow
Temperature-18.0°C (-0.4°F)
Wind chill-30.7°C (-23.3°F)
Dew point-24.0°C (-11.2°F)
Winds 19 kts (9.8 m/s, 21.9 mph) West (260°)
Wind gusts 32 kts (16.5 m/s, 36.8 mph)
Peak wind 33 kts (17 m/s, 38 mph) West (260°) at 04:24
Visibility3 mi. (4.8 km)
Clouds Ceiling: Broken clouds 2,200 ft. (671 m)
Overcast 3,300 ft. (1,006 m)
Altimeter29.85 in.Hg (1011 mB)
PrecipitiationTrace
Precip. events Snow began 4:48 AM
Relative humidity59 %
Density altitude-4,102 ft. (-1,250 m)
Remarks System requires maintenance
Automated weather observing station with precipitation discriminator
Flight conditions Marginal Visual Meteorological Conditions
Raw dataKORD 240448Z 26019G32KT 3SM -SN BLSN BKN022 OVC033 M18/M24 A2985 RMK AO2 PK WND 26033/0424 SNB48 P0000 $
An error has occurred. This application may no longer respond until reloaded. Reload 🗙